createdAt,value
2023-07-18T09:46:39.530Z,7800.00
2023-07-18T09:47:41.620Z,8064.00
2023-07-18T09:49:41.087Z,8508.00
2023-07-18T09:50:40.569Z,8116.00
2023-07-18T09:51:40.852Z,8160.00
2023-07-18T09:52:41.149Z,8136.00
2023-07-18T09:53:41.448Z,8184.00
2023-07-18T09:54:41.758Z,8220.00
2023-07-18T09:55:42.094Z,7556.00
2023-07-18T09:56:42.311Z,7060.00
2023-07-18T09:57:42.607Z,6804.00
2023-07-18T09:58:42.929Z,6644.00
2023-07-18T09:59:43.227Z,6592.00
2023-07-18T10:00:43.538Z,6624.00
2023-07-18T10:01:43.879Z,6536.00
2023-07-18T10:02:44.185Z,6664.00
2023-07-18T10:03:44.611Z,6948.00
2023-07-18T10:04:44.827Z,7212.00
2023-07-18T10:05:45.144Z,7812.00
2023-07-18T10:06:45.329Z,8108.00
2023-07-18T10:07:45.642Z,8192.00
2023-07-18T10:08:45.965Z,8140.00
2023-07-18T10:09:46.278Z,8060.00
2023-07-18T10:10:46.589Z,8380.00
2023-07-18T10:11:46.898Z,8532.00
2023-07-18T10:12:47.205Z,8688.00
2023-07-18T10:13:47.494Z,8648.00
2023-07-18T10:14:47.797Z,8484.00
2023-07-18T10:15:48.212Z,8136.00
2023-07-18T10:16:48.419Z,8088.00
2023-07-18T10:17:48.807Z,8044.00
2023-07-18T10:18:48.949Z,7808.00
2023-07-18T10:19:49.658Z,7612.00
2023-07-18T10:20:49.480Z,7412.00
2023-07-18T10:21:49.802Z,7276.00
2023-07-18T10:22:50.153Z,7112.00
2023-07-18T10:23:50.388Z,6920.00
2023-07-18T10:24:50.681Z,6732.00
2023-07-18T10:25:51.015Z,6624.00
2023-07-18T10:26:51.309Z,6636.00
2023-07-18T10:27:51.602Z,6876.00
2023-07-18T10:28:51.909Z,6956.00
2023-07-18T10:29:52.201Z,6728.00
2023-07-18T10:30:52.551Z,6276.00
2023-07-18T10:31:52.888Z,5752.00
2023-07-18T10:32:54.232Z,5284.00
2023-07-18T10:33:53.335Z,4864.00
2023-07-18T10:34:53.648Z,4584.00
2023-07-18T10:35:53.966Z,4412.00
2023-07-18T10:36:54.297Z,4324.00
2023-07-18T10:37:54.572Z,4268.00
2023-07-18T10:38:54.874Z,4236.00
2023-07-18T10:39:55.169Z,4220.00
2023-07-18T10:40:55.459Z,4264.00
2023-07-18T10:41:55.768Z,4340.00
2023-07-18T10:42:56.039Z,4400.00
2023-07-18T10:43:56.347Z,4548.00
2023-07-18T10:44:56.632Z,4684.00
2023-07-18T10:45:56.953Z,4836.00
2023-07-18T10:46:57.295Z,4976.00
2023-07-18T10:47:57.593Z,5112.00
2023-07-18T10:48:57.894Z,5236.00
2023-07-18T10:49:58.181Z,5460.00
2023-07-18T10:50:58.499Z,5736.00
2023-07-18T10:51:58.795Z,5952.00
2023-07-18T10:52:59.103Z,6048.00
2023-07-18T10:53:59.405Z,6160.00
2023-07-18T10:54:59.694Z,6228.00
2023-07-18T10:56:00.005Z,6172.00
2023-07-18T10:57:00.216Z,6132.00
2023-07-18T10:58:00.506Z,6152.00
2023-07-18T10:59:00.806Z,6180.00
2023-07-18T11:00:01.145Z,6332.00
2023-07-18T11:01:01.358Z,6156.00
2023-07-18T11:02:01.553Z,6292.00
2023-07-18T11:03:01.900Z,5980.00
2023-07-18T11:04:02.244Z,6556.00
2023-07-18T11:05:02.419Z,6348.00
2023-07-18T11:06:02.728Z,6532.00
2023-07-18T11:07:03.026Z,6408.00
2023-07-18T11:08:03.326Z,6652.00
2023-07-18T11:09:03.630Z,6468.00
2023-07-18T11:10:03.917Z,6632.00
2023-07-18T11:11:04.219Z,6664.00
2023-07-18T11:12:04.512Z,6516.00
2023-07-18T11:13:04.821Z,6492.00
2023-07-18T11:14:05.115Z,6548.00
2023-07-18T11:15:05.399Z,6700.00
2023-07-18T11:16:05.734Z,6972.00
2023-07-18T11:17:06.087Z,7396.00
2023-07-18T11:18:06.380Z,7672.00
2023-07-18T11:19:06.658Z,7772.00
2023-07-18T11:20:06.955Z,7772.00
2023-07-18T11:21:07.269Z,7796.00
2023-07-18T11:22:07.565Z,7708.00
2023-07-18T11:23:07.884Z,7616.00
2023-07-18T11:24:08.166Z,7560.00
2023-07-18T11:25:08.509Z,7380.00
2023-07-18T11:26:08.812Z,7128.00
2023-07-18T11:27:09.099Z,6828.00
2023-07-18T11:28:09.388Z,6596.00
2023-07-18T11:29:09.680Z,6256.00
2023-07-18T11:30:10.372Z,5876.00
2023-07-18T11:31:10.311Z,5416.00
2023-07-18T11:32:10.556Z,4932.00
2023-07-18T11:33:10.878Z,4480.00
2023-07-18T11:34:11.139Z,4116.00
2023-07-18T11:35:11.435Z,3864.00
2023-07-18T11:36:11.741Z,3692.00
2023-07-18T11:37:12.056Z,3592.00
2023-07-18T11:38:12.440Z,3524.00
2023-07-18T11:39:12.567Z,3496.00
2023-07-18T11:40:12.981Z,3468.00
2023-07-18T11:41:13.224Z,3448.00
2023-07-18T11:42:13.516Z,3388.00
2023-07-18T11:43:13.801Z,3224.00
2023-07-18T11:44:14.091Z,3312.00
2023-07-18T11:45:14.400Z,3360.00
2023-07-18T11:46:14.703Z,3440.00
2023-07-18T11:47:14.999Z,3800.00
2023-07-18T11:48:15.444Z,3928.00
2023-07-18T11:49:15.581Z,4064.00
2023-07-18T11:52:03.732Z,4024.00
2023-07-18T11:52:31.987Z,3944.00
2023-07-18T11:53:32.250Z,3852.00
2023-07-18T11:54:32.560Z,3800.00
2023-07-18T11:55:32.923Z,3764.00
2023-07-18T11:56:33.185Z,3720.00
2023-07-18T11:57:33.461Z,3696.00
2023-07-18T11:58:33.701Z,3656.00
2023-07-18T11:59:34.041Z,3636.00
2023-07-18T12:00:34.328Z,3608.00
2023-07-18T12:01:37.284Z,3568.00
2023-07-18T12:02:35.082Z,3544.00
2023-07-18T12:03:35.263Z,3560.00
2023-07-18T12:04:35.442Z,3116.00
2023-07-18T12:05:35.769Z,3228.00
2023-07-18T12:06:36.069Z,3604.00
2023-07-18T12:07:36.375Z,3656.00
2023-07-18T12:08:36.665Z,3252.00
2023-07-18T12:09:36.972Z,3448.00
2023-07-18T12:10:37.254Z,3536.00
2023-07-18T12:11:37.559Z,3964.00
2023-07-18T12:12:37.859Z,3996.00
2023-07-18T12:13:38.164Z,4056.00
2023-07-18T12:14:38.456Z,4060.00
2023-07-18T12:15:38.755Z,4116.00
2023-07-18T12:16:39.129Z,4180.00
2023-07-18T12:17:39.491Z,4244.00
2023-07-18T12:18:39.639Z,4252.00
2023-07-18T12:19:39.943Z,4272.00
2023-07-18T12:20:40.234Z,4248.00
2023-07-18T12:21:40.525Z,4136.00
2023-07-18T12:22:40.912Z,4016.00
2023-07-18T12:23:41.063Z,3896.00
2023-07-18T12:24:41.371Z,3796.00
2023-07-18T12:25:41.654Z,3728.00
2023-07-18T12:26:41.949Z,3692.00
2023-07-18T12:27:42.243Z,3692.00
2023-07-18T12:28:42.530Z,3692.00
2023-07-18T12:29:42.837Z,3756.00
2023-07-18T12:30:43.175Z,3852.00
2023-07-18T12:31:43.460Z,3880.00
2023-07-18T12:32:43.783Z,3888.00
2023-07-18T12:33:43.968Z,3956.00
2023-07-18T12:34:44.293Z,4040.00
2023-07-18T12:35:44.583Z,4240.00
2023-07-18T12:36:44.875Z,4364.00
2023-07-18T12:37:45.178Z,4276.00
2023-07-18T12:38:45.472Z,4156.00
2023-07-18T12:39:45.839Z,4176.00
2023-07-18T12:40:46.091Z,4168.00
2023-07-18T12:41:46.397Z,4128.00
2023-07-18T12:42:46.679Z,4096.00
2023-07-18T12:43:46.966Z,3832.00
2023-07-18T12:44:47.276Z,3776.00
2023-07-18T12:45:47.579Z,3652.00
2023-07-18T12:46:47.910Z,3472.00
2023-07-18T12:47:48.250Z,3404.00
2023-07-18T12:48:50.337Z,3532.00
2023-07-18T12:50:48.909Z,3884.00
2023-07-18T12:51:49.197Z,4032.00
2023-07-18T12:52:49.547Z,4572.00
2023-07-18T12:53:49.838Z,4860.00
2023-07-18T12:54:50.141Z,5132.00
2023-07-18T12:55:50.453Z,5384.00
2023-07-18T12:56:50.753Z,5124.00
2023-07-18T12:57:51.042Z,4864.00
2023-07-18T12:58:51.341Z,4720.00
2023-07-18T12:59:51.662Z,4068.00
2023-07-18T13:00:51.947Z,3664.00
2023-07-18T13:01:52.324Z,3432.00
2023-07-18T13:02:52.617Z,3336.00
2023-07-18T13:03:52.850Z,3384.00
2023-07-18T13:04:52.988Z,3384.00
2023-07-18T13:05:53.310Z,3272.00
2023-07-18T13:06:53.593Z,3172.00
2023-07-18T13:07:53.881Z,3032.00
2023-07-18T13:08:54.175Z,2888.00
2023-07-18T13:09:54.488Z,2816.00
2023-07-18T13:10:54.781Z,2788.00
2023-07-18T13:11:55.082Z,2756.00
2023-07-18T13:12:55.363Z,2716.00
2023-07-18T13:13:55.658Z,2732.00
2023-07-18T13:14:55.947Z,2744.00
2023-07-18T13:15:56.233Z,2864.00
2023-07-18T13:16:56.631Z,2932.00
2023-07-18T13:17:56.845Z,2904.00
2023-07-18T13:18:57.121Z,2872.00
2023-07-18T13:19:57.439Z,2844.00
2023-07-18T13:20:57.731Z,2844.00
2023-07-18T13:21:58.036Z,2836.00
2023-07-18T13:22:58.391Z,2836.00
2023-07-18T13:23:58.656Z,2820.00
2023-07-18T13:24:58.969Z,2804.00
2023-07-18T13:25:59.286Z,2804.00
2023-07-18T13:26:59.577Z,2776.00
2023-07-18T13:27:59.896Z,2744.00
2023-07-18T13:29:00.183Z,2700.00
2023-07-18T13:30:00.502Z,2616.00
2023-07-18T13:31:00.797Z,2596.00
2023-07-18T13:32:01.195Z,2608.00
2023-07-18T13:33:01.403Z,2584.00
2023-07-18T13:34:01.676Z,2560.00
2023-07-18T13:35:01.996Z,2528.00
2023-07-18T13:36:02.314Z,2464.00
2023-07-18T13:37:02.607Z,2460.00
2023-07-18T13:38:02.910Z,2436.00
2023-07-18T13:39:03.199Z,2400.00
2023-07-18T13:40:03.542Z,2368.00
2023-07-18T13:41:04.493Z,2356.00
2023-07-18T13:42:04.142Z,2356.00
2023-07-18T13:43:04.691Z,2360.00
2023-07-18T13:44:04.923Z,2364.00
2023-07-18T13:45:04.915Z,2364.00
2023-07-18T13:46:05.260Z,2368.00
2023-07-18T13:47:05.531Z,2356.00
2023-07-18T13:48:05.866Z,2352.00
2023-07-18T13:49:06.049Z,2400.00
2023-07-18T13:50:17.864Z,2376.00
2023-07-18T13:51:07.635Z,2328.00
2023-07-18T13:52:06.950Z,2324.00
2023-07-18T13:53:07.257Z,2292.00
2023-07-18T13:54:07.561Z,2316.00
2023-07-18T13:55:07.880Z,2300.00
2023-07-18T13:56:08.203Z,2296.00
2023-07-18T13:57:08.522Z,2252.00
2023-07-18T13:58:08.815Z,2260.00
2023-07-18T13:59:09.123Z,2284.00
2023-07-18T14:00:09.430Z,2276.00
2023-07-18T14:01:09.799Z,2280.00
2023-07-18T14:02:10.065Z,2296.00
2023-07-18T14:03:23.327Z,2280.00
2023-07-18T14:04:11.706Z,2272.00
2023-07-18T14:05:10.860Z,2276.00
2023-07-18T14:06:11.159Z,2268.00
2023-07-18T14:07:11.471Z,2252.00
2023-07-18T14:08:11.856Z,2264.00
2023-07-18T14:09:12.102Z,2288.00
2023-07-18T14:10:12.389Z,2300.00
2023-07-18T14:11:12.717Z,2300.00
2023-07-18T14:12:13.023Z,2240.00
2023-07-18T14:13:13.323Z,2224.00
2023-07-18T14:14:13.652Z,2220.00
2023-07-18T14:15:13.955Z,2200.00
2023-07-18T14:16:14.303Z,2172.00
2023-07-18T14:17:14.470Z,2168.00
2023-07-18T14:18:14.863Z,2160.00
2023-07-18T14:19:15.008Z,2160.00
2023-07-18T14:20:15.341Z,2160.00
2023-07-18T14:21:15.627Z,2160.00
2023-07-18T14:22:15.926Z,2160.00
2023-07-18T14:23:16.271Z,2160.00
2023-07-18T14:24:16.540Z,2164.00
2023-07-18T14:25:16.846Z,2156.00
2023-07-18T14:26:17.158Z,2140.00
2023-07-18T14:27:17.385Z,2148.00
2023-07-18T14:28:17.718Z,2144.00
2023-07-18T14:29:18.016Z,2128.00
2023-07-18T14:30:18.344Z,2128.00
2023-07-18T14:31:18.749Z,2128.00
2023-07-18T14:32:18.918Z,2128.00
2023-07-18T14:33:19.343Z,2128.00
2023-07-18T14:34:19.513Z,2124.00
2023-07-18T14:35:19.833Z,2120.00
2023-07-18T14:36:20.528Z,2116.00
2023-07-18T14:37:20.389Z,2112.00
2023-07-18T14:38:20.685Z,2124.00
2023-07-18T14:39:21.011Z,2124.00
2023-07-18T14:40:21.304Z,2104.00
2023-07-18T14:41:21.581Z,2096.00
2023-07-18T14:42:21.879Z,2100.00
2023-07-18T14:43:22.182Z,2100.00
2023-07-18T14:44:22.470Z,2104.00
2023-07-18T14:45:22.768Z,2100.00
2023-07-18T14:46:23.783Z,2104.00
2023-07-18T14:47:23.351Z,2104.00
2023-07-18T14:48:23.640Z,2108.00
2023-07-18T14:49:23.943Z,2112.00
2023-07-18T14:50:24.273Z,2120.00
2023-07-18T14:51:24.553Z,2128.00
2023-07-18T14:52:24.871Z,2132.00
2023-07-18T14:53:25.153Z,2140.00
2023-07-18T14:54:25.464Z,2136.00
2023-07-18T14:55:25.821Z,2136.00
2023-07-18T14:56:25.989Z,2132.00
2023-07-18T14:57:26.287Z,2128.00
2023-07-18T14:58:26.553Z,2132.00
2023-07-18T14:59:26.870Z,2140.00
2023-07-18T15:00:27.188Z,2152.00
2023-07-18T15:01:27.563Z,2140.00
2023-07-18T15:02:27.770Z,2152.00
2023-07-18T15:03:28.178Z,2164.00
2023-07-18T15:04:28.370Z,2172.00
2023-07-18T15:05:28.677Z,2172.00
2023-07-18T15:06:28.955Z,2176.00
2023-07-18T15:07:29.284Z,2176.00
2023-07-18T15:08:29.582Z,2068.00
2023-07-18T15:09:29.926Z,2112.00
2023-07-18T15:10:30.212Z,2124.00
2023-07-18T15:11:30.556Z,2124.00
2023-07-18T15:12:30.858Z,2156.00
2023-07-18T15:13:31.145Z,2176.00
2023-07-18T15:14:31.452Z,2188.00
2023-07-18T15:15:31.766Z,2260.00
2023-07-18T15:16:32.229Z,2272.00
2023-07-18T15:17:32.313Z,2272.00
2023-07-18T15:18:32.576Z,2248.00
2023-07-18T15:19:32.899Z,2264.00
2023-07-18T15:20:33.122Z,2264.00
2023-07-18T15:21:33.393Z,2240.00
2023-07-18T15:22:33.794Z,2232.00
2023-07-18T15:23:33.996Z,2236.00
2023-07-18T15:24:34.345Z,2284.00
2023-07-18T15:25:34.582Z,2304.00
2023-07-18T15:26:34.926Z,2284.00
2023-07-18T15:27:35.251Z,2204.00
2023-07-18T15:28:35.557Z,2152.00
2023-07-18T15:29:35.868Z,2176.00
2023-07-18T15:30:36.154Z,2220.00
2023-07-18T15:31:36.477Z,2228.00
2023-07-18T15:32:36.762Z,2316.00
2023-07-18T15:33:37.061Z,2328.00
2023-07-18T15:34:37.354Z,2244.00
2023-07-18T15:35:37.646Z,2264.00
2023-07-18T15:36:37.945Z,2288.00
2023-07-18T15:37:38.246Z,2260.00
2023-07-18T15:38:38.543Z,2236.00
2023-07-18T15:39:38.860Z,2244.00
2023-07-18T15:40:39.140Z,2264.00
2023-07-18T15:41:39.432Z,2312.00
2023-07-18T15:42:39.740Z,2336.00
2023-07-18T15:43:40.018Z,2288.00
2023-07-18T15:44:40.322Z,2360.00
2023-07-18T15:45:40.827Z,2356.00
2023-07-18T15:46:40.988Z,2380.00
2023-07-18T15:47:41.294Z,2480.00
2023-07-18T15:48:41.574Z,2524.00
2023-07-18T15:49:41.872Z,2516.00
2023-07-18T15:50:42.165Z,2468.00
2023-07-18T15:51:42.462Z,2420.00
2023-07-18T15:52:42.764Z,2368.00
2023-07-18T15:53:43.052Z,2340.00
2023-07-18T15:54:43.367Z,2344.00
2023-07-18T15:55:43.675Z,2312.00
2023-07-18T15:56:43.962Z,2288.00
2023-07-18T15:57:44.291Z,2232.00
2023-07-18T15:58:44.573Z,2148.00
2023-07-18T15:59:44.882Z,2064.00
2023-07-18T16:00:45.234Z,2080.00
2023-07-18T16:01:45.551Z,2080.00
2023-07-18T16:02:45.917Z,2088.00
2023-07-18T16:03:46.144Z,2104.00
2023-07-18T16:04:46.310Z,2124.00
2023-07-18T16:05:46.617Z,2116.00
2023-07-18T16:06:46.920Z,2120.00
2023-07-18T16:07:47.221Z,2084.00
2023-07-18T16:08:47.509Z,2040.00
2023-07-18T16:09:47.817Z,2016.00
2023-07-18T16:10:48.114Z,1992.00
2023-07-18T16:11:48.471Z,1992.00
2023-07-18T16:12:48.649Z,1964.00
2023-07-18T16:13:48.946Z,1928.00
2023-07-18T16:14:49.256Z,1920.00
2023-07-18T16:15:49.632Z,1908.00
2023-07-18T16:16:49.883Z,1908.00
2023-07-18T16:17:50.263Z,1896.00
2023-07-18T16:18:50.419Z,1904.00
2023-07-18T16:19:50.727Z,1888.00
2023-07-18T16:20:51.023Z,1888.00
2023-07-18T16:21:51.308Z,1884.00
2023-07-18T16:22:51.620Z,1884.00
2023-07-18T16:23:51.898Z,1868.00
2023-07-18T16:24:52.221Z,1868.00
2023-07-18T16:25:52.511Z,1872.00
2023-07-18T16:26:52.794Z,1896.00
2023-07-18T16:27:53.199Z,1888.00
2023-07-18T16:28:53.360Z,1884.00
2023-07-18T16:29:53.679Z,1880.00
2023-07-18T16:30:53.998Z,1876.00
2023-07-18T16:31:54.262Z,1888.00
2023-07-18T16:32:54.667Z,1884.00
2023-07-18T16:33:54.812Z,1892.00
2023-07-18T16:34:55.104Z,1884.00
2023-07-18T16:35:55.393Z,1876.00
2023-07-18T16:36:55.686Z,1872.00
2023-07-18T16:37:55.974Z,1868.00
2023-07-18T16:38:56.279Z,1860.00
2023-07-18T16:39:56.980Z,1856.00
2023-07-18T16:40:56.807Z,1848.00
2023-07-18T16:42:06.421Z,1844.00
2023-07-18T16:42:58.374Z,1836.00
2023-07-18T16:43:57.672Z,1840.00
2023-07-18T16:44:57.989Z,1848.00
2023-07-18T16:45:58.288Z,1844.00
2023-07-18T16:46:58.606Z,1836.00
2023-07-18T16:47:58.958Z,1832.00
2023-07-18T16:48:59.216Z,1712.00
2023-07-18T16:49:59.533Z,1688.00
2023-07-18T16:50:59.826Z,1704.00
2023-07-18T16:52:00.106Z,1732.00
2023-07-18T16:53:00.396Z,1768.00
2023-07-18T16:54:00.691Z,1768.00
2023-07-18T16:55:00.999Z,1788.00
2023-07-18T16:56:01.273Z,1788.00
2023-07-18T16:57:01.554Z,1788.00
2023-07-18T16:58:01.847Z,1796.00
2023-07-18T16:59:02.198Z,1816.00
2023-07-18T17:00:02.394Z,1788.00
2023-07-18T17:01:02.725Z,1800.00
2023-07-18T17:02:05.876Z,1780.00
2023-07-18T17:03:03.329Z,1784.00
2023-07-18T17:04:03.650Z,1744.00
2023-07-18T17:05:03.998Z,1764.00
2023-07-18T17:06:04.288Z,1780.00
2023-07-18T17:07:04.607Z,1744.00
2023-07-18T17:08:06.368Z,1792.00
2023-07-18T17:09:05.157Z,1748.00
2023-07-18T17:10:05.570Z,1808.00
2023-07-18T17:11:05.811Z,1784.00
2023-07-18T17:12:06.059Z,1812.00
2023-07-18T17:13:06.347Z,1800.00
2023-07-18T17:14:06.656Z,1788.00
2023-07-18T17:15:06.980Z,1816.00
2023-07-18T17:16:07.284Z,1780.00
2023-07-18T17:17:07.615Z,1764.00
2023-07-18T17:18:07.938Z,1756.00
2023-07-18T17:19:08.199Z,1744.00
2023-07-18T17:20:09.806Z,1704.00
2023-07-18T17:21:08.804Z,1748.00
2023-07-18T17:22:09.101Z,1784.00
2023-07-18T17:23:09.483Z,1804.00
2023-07-18T17:24:09.644Z,1792.00
2023-07-18T17:25:09.923Z,1772.00
2023-07-18T17:26:10.244Z,1732.00
2023-07-18T17:27:10.505Z,1732.00
2023-07-18T17:28:10.817Z,1756.00
2023-07-18T17:29:11.103Z,1756.00
2023-07-18T17:30:11.422Z,1752.00
2023-07-18T17:31:11.816Z,1788.00
2023-07-18T17:32:12.068Z,1804.00
2023-07-18T17:33:12.358Z,1800.00
2023-07-18T17:34:12.664Z,1804.00
2023-07-18T17:35:12.986Z,1808.00
2023-07-18T17:36:13.279Z,1776.00
2023-07-18T17:37:13.591Z,1752.00
2023-07-18T17:38:13.879Z,1768.00
2023-07-18T17:39:14.199Z,1788.00
2023-07-18T17:40:14.541Z,1772.00
2023-07-18T17:41:14.839Z,1740.00
2023-07-18T17:42:15.137Z,1732.00
2023-07-18T17:43:15.481Z,1748.00
2023-07-18T17:44:15.753Z,1732.00
2023-07-18T17:45:16.053Z,1724.00
2023-07-18T17:46:16.366Z,1716.00
2023-07-18T17:47:16.665Z,1696.00
2023-07-18T17:48:16.963Z,1680.00
2023-07-18T17:49:17.288Z,1644.00
2023-07-18T17:50:17.610Z,1644.00
2023-07-18T17:51:18.068Z,1628.00
2023-07-18T17:52:18.136Z,1588.00
2023-07-18T17:53:18.439Z,1600.00
2023-07-18T17:54:18.747Z,1632.00
2023-07-18T17:55:19.064Z,1604.00
2023-07-18T17:56:19.356Z,1584.00
2023-07-18T17:57:19.708Z,1592.00
2023-07-18T17:58:19.877Z,1632.00
2023-07-18T17:59:20.163Z,1636.00
2023-07-18T18:00:20.479Z,1608.00
2023-07-18T18:01:20.930Z,1608.00
2023-07-18T18:02:21.159Z,1600.00
2023-07-18T18:03:21.499Z,1588.00
2023-07-18T18:04:21.649Z,1576.00
2023-07-18T18:05:21.953Z,1556.00
2023-07-18T18:06:22.259Z,1524.00
2023-07-18T18:07:22.568Z,1508.00
2023-07-18T18:08:22.870Z,1496.00
2023-07-18T18:09:23.176Z,1504.00
2023-07-18T18:10:23.587Z,1464.00
2023-07-18T18:11:23.738Z,1436.00
2023-07-18T18:12:24.063Z,1416.00
2023-07-18T18:13:24.354Z,1404.00
2023-07-18T18:14:24.648Z,1404.00
2023-07-18T18:15:24.955Z,1408.00
2023-07-18T18:16:25.281Z,1432.00
2023-07-18T18:17:25.566Z,1484.00
2023-07-18T18:18:25.829Z,1436.00
2023-07-18T18:19:26.146Z,1340.00
2023-07-18T18:20:26.463Z,1288.00
2023-07-18T18:21:26.895Z,1248.00
2023-07-18T18:22:27.051Z,1216.00
2023-07-18T18:23:36.735Z,1196.00
2023-07-18T18:24:28.618Z,1168.00
2023-07-18T18:25:27.980Z,1148.00
2023-07-18T18:26:28.257Z,1132.00
2023-07-18T18:27:28.552Z,1112.00
2023-07-18T18:28:28.868Z,1096.00
2023-07-18T18:29:29.156Z,1076.00
2023-07-18T18:30:29.497Z,1060.00
2023-07-18T18:31:29.826Z,1032.00
2023-07-18T18:32:29.981Z,1020.00
2023-07-18T18:33:30.273Z,1008.00
2023-07-18T18:34:30.563Z,988.00
2023-07-18T18:35:30.872Z,964.00
2023-07-18T18:36:31.152Z,952.00
2023-07-18T18:37:31.435Z,936.00
2023-07-18T18:38:31.718Z,924.00
2023-07-18T18:39:32.006Z,908.00
2023-07-18T18:40:32.371Z,892.00
2023-07-18T18:41:32.593Z,880.00
2023-07-18T18:42:32.885Z,864.00
2023-07-18T18:43:33.165Z,848.00
2023-07-18T18:44:33.460Z,832.00
2023-07-18T18:45:33.768Z,820.00
2023-07-18T18:46:34.148Z,804.00
2023-07-18T18:47:34.324Z,788.00
2023-07-18T18:48:34.564Z,768.00
2023-07-18T18:49:34.844Z,752.00
2023-07-18T18:50:35.148Z,744.00
2023-07-18T18:51:35.411Z,720.00
2023-07-18T18:52:35.693Z,708.00
2023-07-18T18:53:36.403Z,692.00
2023-07-18T18:54:36.256Z,668.00
2023-07-18T18:55:36.587Z,656.00
2023-07-18T18:56:36.881Z,640.00
2023-07-18T18:57:37.178Z,620.00
2023-07-18T18:58:37.441Z,600.00
2023-07-18T18:59:37.786Z,584.00
2023-07-18T19:00:38.058Z,568.00
2023-07-18T19:01:38.412Z,548.00
2023-07-18T19:02:38.755Z,524.00
2023-07-18T19:03:39.138Z,504.00
2023-07-18T19:04:39.248Z,488.00
2023-07-18T19:05:39.563Z,464.00
2023-07-18T19:06:39.751Z,440.00
2023-07-18T19:07:40.037Z,424.00
2023-07-18T19:08:40.309Z,400.00
2023-07-18T19:09:40.615Z,384.00
2023-07-18T19:10:46.399Z,368.00
2023-07-18T19:11:42.128Z,348.00
2023-07-18T19:12:41.497Z,332.00
2023-07-18T19:13:41.729Z,316.00
2023-07-18T19:14:42.004Z,304.00
2023-07-18T19:15:42.299Z,292.00
2023-07-18T19:16:42.622Z,276.00
2023-07-18T19:17:43.173Z,260.00
2023-07-18T19:18:43.206Z,244.00
2023-07-18T19:19:43.497Z,232.00
2023-07-18T19:20:43.807Z,216.00
2023-07-18T19:21:44.094Z,208.00
2023-07-18T19:22:44.404Z,192.00
2023-07-18T19:23:44.644Z,184.00
2023-07-18T19:24:44.923Z,172.00
2023-07-18T19:25:45.204Z,164.00
2023-07-18T19:26:45.489Z,152.00
2023-07-18T19:27:45.732Z,144.00
2023-07-18T19:28:45.989Z,136.00
2023-07-18T19:29:46.362Z,128.00
2023-07-18T19:30:46.595Z,132.00
2023-07-18T19:31:46.934Z,124.00
2023-07-18T19:32:47.218Z,116.00
2023-07-18T19:33:47.448Z,104.00
2023-07-18T19:34:47.719Z,96.00
2023-07-18T19:35:47.981Z,80.00
2023-07-18T19:36:48.242Z,76.00
2023-07-18T19:37:48.499Z,72.00
2023-07-18T19:38:48.764Z,68.00
2023-07-18T19:39:49.029Z,60.00
2023-07-18T19:40:49.302Z,56.00
2023-07-18T19:41:49.603Z,52.00
2023-07-18T19:42:49.866Z,48.00
2023-07-18T19:43:50.127Z,40.00
2023-07-18T19:44:50.385Z,40.00
2023-07-18T19:45:50.684Z,36.00
2023-07-18T19:46:50.912Z,32.00
2023-07-18T19:47:51.237Z,28.00
2023-07-18T19:48:51.487Z,24.00
2023-07-18T19:49:51.769Z,24.00
2023-07-18T19:50:52.041Z,24.00
2023-07-18T19:51:52.299Z,20.00
2023-07-18T19:52:52.597Z,16.00
2023-07-18T19:53:52.874Z,16.00
2023-07-18T19:54:53.190Z,16.00
2023-07-18T19:55:53.431Z,12.00
2023-07-18T19:56:53.665Z,8.00
2023-07-18T19:57:53.910Z,8.00
2023-07-18T19:58:54.148Z,8.00
2023-07-18T19:59:54.385Z,8.00
2023-07-18T20:00:54.650Z,8.00
2023-07-18T20:01:54.970Z,4.00
2023-07-18T20:02:55.279Z,4.00
2023-07-18T20:03:59.956Z,4.00
2023-07-18T20:04:56.825Z,4.00
2023-07-18T20:05:56.116Z,4.00
2023-07-18T20:06:56.353Z,0.00
2023-07-18T20:07:56.594Z,4.00
2023-07-18T20:08:56.864Z,4.00
2023-07-18T20:09:57.121Z,4.00
2023-07-18T20:10:57.396Z,0.00
2023-07-18T20:11:57.664Z,0.00
2023-07-18T20:12:57.899Z,0.00
2023-07-18T20:13:58.148Z,0.00
2023-07-18T20:14:58.413Z,0.00
2023-07-18T20:15:58.668Z,0.00
2023-07-18T20:16:58.899Z,0.00
2023-07-18T20:17:59.194Z,0.00
2023-07-18T20:19:02.564Z,0.00
2023-07-18T20:19:59.695Z,0.00
2023-07-18T20:20:59.932Z,0.00
2023-07-18T20:22:00.180Z,0.00
2023-07-18T20:23:00.463Z,0.00
2023-07-18T20:24:00.663Z,0.00
2023-07-18T20:25:00.951Z,0.00
2023-07-18T20:26:01.214Z,0.00
2023-07-18T20:27:01.479Z,0.00
2023-07-18T20:28:01.676Z,0.00
2023-07-18T20:29:01.926Z,0.00
2023-07-18T20:30:02.203Z,0.00
2023-07-18T20:31:02.446Z,0.00
2023-07-18T20:32:02.732Z,0.00
2023-07-18T20:33:03.097Z,0.00
2023-07-18T20:34:03.237Z,0.00
2023-07-18T20:35:03.491Z,0.00
2023-07-18T20:36:03.760Z,0.00
2023-07-18T20:37:04.017Z,0.00
2023-07-18T20:38:04.302Z,0.00
2023-07-18T20:39:04.547Z,0.00
2023-07-18T20:40:04.788Z,0.00
2023-07-18T20:41:08.443Z,0.00
2023-07-18T20:42:05.385Z,0.00
2023-07-18T20:43:05.626Z,0.00
2023-07-18T20:44:05.877Z,0.00
2023-07-18T20:45:06.121Z,0.00
2023-07-18T20:46:06.426Z,0.00
2023-07-18T20:47:06.634Z,0.00
2023-07-18T20:48:06.903Z,0.00
2023-07-18T20:49:07.152Z,0.00
2023-07-18T20:50:07.410Z,0.00
2023-07-18T20:51:07.694Z,0.00
2023-07-18T20:52:07.929Z,0.00
2023-07-18T20:53:08.165Z,0.00
2023-07-18T20:54:08.420Z,0.00
2023-07-18T20:55:08.650Z,0.00
2023-07-18T20:56:08.933Z,0.00
2023-07-18T20:57:09.197Z,0.00
2023-07-18T20:58:09.411Z,0.00
2023-07-18T20:59:09.671Z,0.00
2023-07-18T21:00:09.923Z,0.00
2023-07-18T21:01:10.176Z,0.00
2023-07-18T21:02:10.429Z,0.00
2023-07-18T21:03:10.717Z,0.00
2023-07-18T21:04:11.003Z,0.00
2023-07-18T21:05:11.232Z,0.00
2023-07-18T21:06:11.495Z,0.00
2023-07-18T21:07:11.724Z,0.00
2023-07-18T21:08:11.982Z,0.00
2023-07-18T21:09:12.221Z,0.00
2023-07-18T21:10:12.495Z,0.00
2023-07-18T21:11:12.727Z,0.00
2023-07-18T21:12:12.975Z,0.00
2023-07-18T21:13:13.254Z,0.00
2023-07-18T21:14:13.468Z,0.00
2023-07-18T21:15:13.721Z,0.00
2023-07-18T21:16:14.034Z,0.00
2023-07-18T21:17:14.241Z,0.00
2023-07-18T21:18:14.507Z,0.00
2023-07-18T21:19:14.742Z,0.00
2023-07-18T21:20:15.001Z,0.00
2023-07-18T21:21:15.302Z,0.00
2023-07-18T21:22:15.503Z,0.00
2023-07-18T21:23:15.772Z,0.00
2023-07-18T21:24:16.030Z,0.00
2023-07-18T21:25:16.281Z,0.00
2023-07-18T21:26:16.537Z,0.00
2023-07-18T21:27:16.775Z,0.00
2023-07-18T21:28:17.010Z,0.00
2023-07-18T21:29:17.265Z,0.00
2023-07-18T21:30:17.503Z,0.00
2023-07-18T21:31:18.106Z,0.00
2023-07-18T21:32:18.049Z,0.00
2023-07-18T21:33:18.314Z,0.00
2023-07-18T21:34:18.553Z,0.00
2023-07-18T21:35:18.815Z,0.00
2023-07-18T21:36:19.064Z,0.00
2023-07-18T21:37:19.311Z,0.00
2023-07-18T21:38:19.565Z,0.00
2023-07-18T21:39:19.820Z,0.00
2023-07-18T21:40:20.114Z,0.00
2023-07-18T21:41:20.719Z,0.00
2023-07-18T21:42:20.596Z,0.00
2023-07-18T21:43:20.842Z,0.00
2023-07-18T21:44:21.082Z,0.00
2023-07-18T21:45:21.337Z,0.00
2023-07-18T21:46:21.694Z,0.00
2023-07-18T21:47:21.840Z,0.00
2023-07-18T21:48:22.091Z,0.00
2023-07-18T21:49:22.332Z,0.00
2023-07-18T21:50:22.554Z,0.00
2023-07-18T21:51:23.029Z,0.00
2023-07-18T21:52:23.087Z,0.00
2023-07-18T21:53:23.333Z,0.00
2023-07-18T21:54:23.602Z,0.00
2023-07-18T21:55:23.842Z,0.00
2023-07-18T21:56:24.150Z,0.00
2023-07-18T21:57:24.409Z,0.00
2023-07-18T21:58:24.684Z,0.00
2023-07-18T21:59:24.920Z,0.00
2023-07-18T22:00:25.173Z,0.00
2023-07-18T22:01:25.514Z,0.00
2023-07-18T22:02:25.783Z,0.00
2023-07-18T22:03:26.038Z,0.00
2023-07-18T22:04:26.286Z,0.00
2023-07-18T22:05:26.528Z,0.00
2023-07-18T22:06:26.804Z,0.00
2023-07-18T22:07:27.049Z,0.00
2023-07-18T22:08:27.288Z,0.00
2023-07-18T22:09:27.534Z,0.00
2023-07-18T22:10:27.793Z,0.00
2023-07-18T22:11:28.079Z,0.00
2023-07-18T22:12:28.340Z,0.00
2023-07-18T22:13:28.604Z,0.00
2023-07-18T22:14:28.849Z,0.00